Flight Track Log - Related Links

Times and Time Zones

All times are in EST time to prevent confusion due to time zone crossing. See the FIV342 flight status page for this flight to view local times or setup timezone preferences in your user account.

Time Position Orientation Groundspeed Altitude Reporting Facility
EST Latitude Longitude Course Direction KTS MPH feet Rate Location/Type
Sat 05:41:45 PM 33.3167 -111.6667 40° Northeast 169 194 2,200  Level Phoenix TRACON
Sat 05:42:51 PM 33.3500 -111.6333 107° East 214 246 4,500 2,190 Climbing Phoenix TRACON
Sat 05:43:51 PM 33.3333 -111.5667 40° Northeast 225 259 6,800 2,056 Climbing Phoenix TRACON
Sat 05:44:39 PM 33.3667 -111.5333 26° Northeast 253 291 8,200 1,229 Climbing Phoenix TRACON
Sat 05:45:14 PM 33.4031 -111.5119 21° North 297 342 8,500 1,074 Climbing Albuquerque Center
Sat 05:46:14 PM 33.4814 -111.4761 25° Northeast 304 350 9,900 750 Climbing Albuquerque Center
Sat 05:47:14 PM 33.5431 -111.4419 24° Northeast 279 321 10,000 150 Climbing Albuquerque Center
Sat 05:48:14 PM 33.5983 -111.4119 29° Northeast 239 275 10,200 450 Climbing Albuquerque Center
Sat 05:49:14 PM 33.6539 -111.3747 61° Northeast 222 255 10,900 350 Climbing Albuquerque Center
Sat 05:50:14 PM 33.6831 -111.3114 68° East 207 238 10,900 50 Level Albuquerque Center
Sat 05:51:14 PM 33.7039 -111.2500 71° East 201 231 11,000 50 Climbing Albuquerque Center
Sat 05:52:14 PM 33.7225 -111.1858 63° Northeast 196 226 11,000  Level Albuquerque Center
Sat 05:53:14 PM 33.7497 -111.1222 70° East 191 220 11,000  Level Albuquerque Center
Sat 05:54:14 PM 33.7683 -111.0606 68° East 191 220 11,000  Level Albuquerque Center
Sat 05:55:14 PM 33.7889 -110.9992 71° East 191 220 11,000  Level Albuquerque Center
Sat 05:56:14 PM 33.8075 -110.9350 64° Northeast 191 220 11,000 650 Level Albuquerque Center
Sat 05:57:14 PM 33.8344 -110.8686 67° East 197 227 12,300 1,450 Climbing Albuquerque Center
Sat 05:58:14 PM 33.8594 -110.7972 68° East 215 247 13,900 850 Climbing Albuquerque Center
Sat 05:59:14 PM 33.8822 -110.7306 65° Northeast 220 253 14,000 50 Climbing Albuquerque Center
Sat 06:00:14 PM 33.9047 -110.6714 69° East 220 253 14,000 -50 Level Albuquerque Center
Sat 06:01:14 PM 33.9253 -110.6072 64° Northeast 213 245 13,900  Descending Albuquerque Center
Sat 06:02:14 PM 33.9500 -110.5456 69° East 208 239 14,000 150 Climbing Albuquerque Center
Sat 06:03:14 PM 33.9750 -110.4689 70° East 215 247 14,200 750 Climbing Albuquerque Center
Sat 06:04:14 PM 34.0069 -110.3622 67° East 274 315 15,500 1,450 Climbing Albuquerque Center
Sat 06:05:14 PM 34.0428 -110.2583 66° East 311 358 17,100 1,650 Climbing Albuquerque Center
Sat 06:06:14 PM 34.0764 -110.1667 66° East 330 380 18,800 1,700 Climbing Albuquerque Center
Sat 06:07:14 PM 34.1186 -110.0503 67° East 330 380 20,500 1,650 Climbing Albuquerque Center
Sat 06:08:14 PM 34.1544 -109.9461 67° East 330 380 22,100 1,600 Climbing Albuquerque Center
Sat 06:09:14 PM 34.1878 -109.8492 69° East 336 387 23,700 1,750 Climbing Albuquerque Center
Sat 06:10:14 PM 34.2278 -109.7247 67° East 354 407 25,600 1,650 Climbing Albuquerque Center
Sat 06:11:14 PM 34.2675 -109.6103 68° East 363 418 27,000 700 Climbing Albuquerque Center
Sat 06:12:14 PM 34.3094 -109.4858 68° East 381 438 27,000  Level Albuquerque Center
Sat 06:13:14 PM 34.3511 -109.3636 67° East 407 468 27,000  Level Albuquerque Center
Sat 06:14:14 PM 34.3994 -109.2264 70° East 431 496 27,000  Level Albuquerque Center
Sat 06:15:14 PM 34.4411 -109.0836 72° East 437 503 27,000  Level Albuquerque Center
Sat 06:16:14 PM 34.4806 -108.9383 70° East 448 516 27,000  Level Albuquerque Center
Sat 06:17:14 PM 34.5222 -108.7956 72° East 448 516 27,000  Level Albuquerque Center
Sat 06:18:14 PM 34.5614 -108.6525 76° East 443 510 27,000  Level Albuquerque Center
Sat 06:19:14 PM 34.5942 -108.4889 67° East 443 510 27,000  Level Albuquerque Center
Sat 06:20:14 PM 34.6436 -108.3483 73° East 438 504 27,000  Level Albuquerque Center
Sat 06:21:14 PM 34.6800 -108.2022 70° East 438 504 27,000  Level Albuquerque Center
Sat 06:22:14 PM 34.7228 -108.0561 73° East 444 511 27,000  Level Albuquerque Center
Sat 06:23:14 PM 34.7589 -107.9097 72° East 444 511 27,000  Level Albuquerque Center
Sat 06:24:14 PM 34.7928 -107.7811 72° East 439 505 27,000  Level Albuquerque Center
Sat 06:25:14 PM 34.8350 -107.6244 73° East 439 505 27,000  Level Albuquerque Center
Sat 06:26:14 PM 34.8728 -107.4750 71° East 447 514 27,000  Level Albuquerque Center
Sat 06:27:14 PM 34.9106 -107.3383 72° East 459 528 27,000  Level Albuquerque Center
Sat 06:28:14 PM 34.9481 -107.1939 74° East 459 528 27,000  Level Albuquerque Center
Sat 06:29:14 PM 34.9872 -107.0317 72° East 454 522 27,000  Level Albuquerque Center
Sat 06:30:14 PM 35.0264 -106.8819 69° East 461 531 27,000  Level Albuquerque Center
Sat 06:31:14 PM 35.0675 -106.7522 66° East 461 531 27,000  Level Albuquerque Center
Sat 06:32:14 PM 35.1189 -106.6122 66° East 455 524 27,000  Level Albuquerque Center
Sat 06:33:14 PM 35.1764 -106.4567 65° Northeast 455 524 27,000  Level Albuquerque Center
Sat 06:34:14 PM 35.2294 -106.3161 66° East 455 524 27,000  Level Albuquerque Center
Sat 06:35:14 PM 35.2803 -106.1731 65° Northeast 455 524 27,000  Level Albuquerque Center
Sat 06:36:14 PM 35.3350 -106.0319 65° Northeast 455 524 27,000  Level Albuquerque Center
Sat 06:37:14 PM 35.3878 -105.8936 68° East 455 524 27,000  Level Albuquerque Center
Sat 06:38:14 PM 35.4319 -105.7603 66° East 460 529 27,000  Level Albuquerque Center
Sat 06:39:14 PM 35.4822 -105.6189 66° East 460 529 27,000  Level Albuquerque Center
Sat 06:40:14 PM 35.5383 -105.4647 66° East 453 521 27,000  Level Albuquerque Center
Sat 06:41:14 PM 35.5903 -105.3228 65° Northeast 453 521 27,000  Level Albuquerque Center
Sat 06:42:14 PM 35.6381 -105.1964 67° East 453 521 27,000  Level Albuquerque Center
Sat 06:43:14 PM 35.6875 -105.0544 66° East 453 521 27,000  Level Albuquerque Center
Sat 06:44:14 PM 35.7450 -104.8967 67° East 447 514 27,000  Level Albuquerque Center
Sat 06:45:14 PM 35.7942 -104.7544 67° East 452 520 27,000  Level Albuquerque Center
Sat 06:46:14 PM 35.8431 -104.6144 67° East 447 514 27,000  Level Albuquerque Center
Sat 06:47:14 PM 35.8939 -104.4689 67° East 447 514 27,000  Level Albuquerque Center
Sat 06:48:14 PM 35.9425 -104.3286 67° East 447 514 27,000  Level Albuquerque Center
Sat 06:49:14 PM 35.9911 -104.1883 66° East 447 514 27,000  Level Albuquerque Center
Sat 06:50:14 PM 36.0436 -104.0397 67° East 447 514 27,000  Level Albuquerque Center
Sat 06:51:14 PM 36.0858 -103.9144 67° East 447 514 27,000  Level Albuquerque Center
Sat 06:52:14 PM 36.1358 -103.7683 67° East 447 514 27,000  Level Albuquerque Center
Sat 06:53:14 PM 36.1836 -103.6272 67° East 447 514 27,000  Level Albuquerque Center
Sat 06:54:14 PM 36.2333 -103.4831 67° East 447 514 27,000  Level Albuquerque Center
Sat 06:55:14 PM 36.2828 -103.3389 68° East 448 516 27,000  Level Albuquerque Center
Sat 06:56:14 PM 36.3339 -103.1817 68° East 448 516 27,000  Level Albuquerque Center
Sat 06:57:14 PM 36.3772 -103.0503 67° East 447 514 27,000  Level Albuquerque Center
Sat 06:58:59 PM 36.4650 -102.7897 69° East 454 522 27,000  Level Kansas City Center
Sat 06:59:59 PM 36.5106 -102.6444 66° East 454 522 27,000  Level Kansas City Center
Sat 07:00:59 PM 36.5597 -102.5047 68° East 447 514 27,000  Level Kansas City Center
Sat 07:01:59 PM 36.6072 -102.3572 70° East 447 514 27,000  Level Kansas City Center
Sat 07:02:59 PM 36.6450 -102.2264 67° East 447 514 27,000  Level Kansas City Center
Sat 07:03:59 PM 36.6989 -102.0683 68° East 442 509 27,000  Level Kansas City Center
Sat 07:04:59 PM 36.7433 -101.9275 71° East 442 509 27,000  Level Kansas City Center
Sat 07:05:59 PM 36.7808 -101.7939 74° East 437 503 27,000  Level Kansas City Center
Sat 07:06:59 PM 36.8150 -101.6414 74° East 442 509 27,000  Level Kansas City Center
Sat 07:07:59 PM 36.8522 -101.4733 75° East 453 521 27,000  Level Kansas City Center
Sat 07:08:59 PM 36.8836 -101.3256 74° East 447 514 27,000  Level Kansas City Center
Sat 07:09:59 PM 36.9144 -101.1881 75° East 447 514 27,000  Level Kansas City Center
Sat 07:10:59 PM 36.9486 -101.0244 75° East 447 514 27,000  Level Kansas City Center
Sat 07:11:59 PM 36.9797 -100.8739 75° East 447 514 27,000  Level Kansas City Center
Sat 07:12:59 PM 37.0103 -100.7256 75° East 447 514 27,000  Level Kansas City Center
Sat 07:13:59 PM 37.0406 -100.5875 76° East 447 514 27,000  Level Kansas City Center
Sat 07:14:59 PM 37.0739 -100.4233 76° East 447 514 27,000  Level Kansas City Center
Sat 07:15:59 PM 37.1042 -100.2719 75° East 447 514 27,000  Level Kansas City Center
Sat 07:16:59 PM 37.1336 -100.1361 76° East 447 514 27,000  Level Kansas City Center
Sat 07:17:59 PM 37.1664 -99.9692 75° East 452 520 27,000  Level Kansas City Center
Sat 07:18:59 PM 37.1983 -99.8150 76° East 447 514 27,000  Level Kansas City Center
Sat 07:19:59 PM 37.2278 -99.6683 75° East 447 514 27,000  Level Kansas City Center
Sat 07:20:59 PM 37.2567 -99.5294 77° East 447 514 27,000 -450 Level Kansas City Center
Sat 07:21:59 PM 37.2836 -99.3850 76° East 447 514 26,100 -1,450 Descending Kansas City Center
Sat 07:22:59 PM 37.3150 -99.2303 76° East 428 493 24,100 -2,050 Descending Kansas City Center
Sat 07:23:59 PM 37.3433 -99.0908 77° East 416 479 22,000 -2,000 Descending Kansas City Center
Sat 07:24:59 PM 37.3694 -98.9514 76° East 411 473 20,100 2,500 Descending Kansas City Center
Sat 07:25:59 PM 37.3953 -98.8169 77° East 411 473 27,000 -2,000 Climbing Kansas City Center
Sat 07:26:59 PM 37.4186 -98.6850 76° East 400 460 16,100 -6,300 Descending Kansas City Center
Sat 07:27:59 PM 37.4439 -98.5556 78° East 388 447 14,400 -1,631 Descending Kansas City Center
Sat 07:28:42 PM 37.4597 -98.4594 73° East 377 434 13,300 -1,500 Descending Kansas City Center
Sat 07:29:59 PM 37.4981 -98.3044 62° Northeast 371 427 11,400 -1,401 Descending Kansas City Center
Sat 07:30:59 PM 37.5456 -98.1914 64° Northeast 360 414 10,100 -1,300 Descending Kansas City Center
Sat 07:31:59 PM 37.5864 -98.0861 64° Northeast 349 402 8,800 -1,350 Descending Kansas City Center
Sat 07:32:59 PM 37.6269 -97.9806 58° Northeast 336 387 7,400 -1,350 Descending Kansas City Center
Sat 07:33:59 PM 37.6736 -97.8856 57° Northeast 330 380 6,100 -1,050 Descending Kansas City Center
Sat 07:34:59 PM 37.7219 -97.7906 60° Northeast 319 367 5,300 -550 Descending Kansas City Center
Sat 07:35:59 PM 37.7642 -97.6978 76° East 314 361 5,000 -150 Descending Kansas City Center
Sat 07:36:59 PM 37.7833 -97.6014 87° East 293 337 5,000 -142 Level Kansas City Center
Sat 07:38:06 PM 37.7883 -97.4939 86° East 285 328 4,700 -500 Descending Kansas City Center
Sat 07:38:59 PM 37.7922 -97.4153 166° South 265 305 4,000 -934 Descending Kansas City Center
Sat 07:40:08 PM 37.7447 -97.4003 174° South 140 161 2,800 -750 Descending Kansas City Center
Sat 07:40:59 PM 37.7175 -97.3967 194° South 124 143 2,500 -432 Descending Kansas City Center
Sat 07:41:59 PM 37.6881 -97.4058 200° South 124 143 2,000 -550 Descending Kansas City Center
Sat 07:42:59 PM 37.6608 -97.4181 200° South 113 130 1,400 -600 Descending Kansas City Center

Login

Don't have an account? Register now (free) for customized features, flight alerts, and more!